DESAG LESB-LESB
Flight info
| Callsign | DESAG |
|---|---|
| Flight time | N/A |
| Altitude | 3000 |
| Route | DCT |
| Aircraft | C172/L-VGD/A |
Departure
| Time | 2026-05-05 06:46 |
|---|---|
| Airport | Son Bonet Airfield (LESB) |
Arrival
| Time | N/A |
|---|---|
| Airport | Son Bonet Airfield (LESB) |
| Time | Latitude | Longitude | Altitude | Speed | Heading |
|---|---|---|---|---|---|
| 2026-05-05 06:44 | 39.60285 | 2.70801 | 150 ft | 0 kts | 140° |
| 2026-05-05 06:44 | 39.60268 | 2.70820 | 150 ft | 3 kts | 140° |
| 2026-05-05 06:44 | 39.60258 | 2.70830 | 150 ft | 6 kts | 146° |
| 2026-05-05 06:44 | 39.60213 | 2.70779 | 149 ft | 14 kts | 231° |
| 2026-05-05 06:45 | 39.60071 | 2.70549 | 142 ft | 58 kts | 231° |
| 2026-05-05 06:45 | 39.59726 | 2.69998 | 144 ft | 95 kts | 230° |
| 2026-05-05 06:45 | 39.59272 | 2.69335 | 321 ft | 100 kts | 228° |
| 2026-05-05 06:45 | 39.58971 | 2.68878 | 461 ft | 101 kts | 230° |
| 2026-05-05 06:46 | 39.58519 | 2.68195 | 691 ft | 99 kts | 229° |
| 2026-05-05 06:46 | 39.58075 | 2.67522 | 937 ft | 97 kts | 229° |
| 2026-05-05 06:46 | 39.57646 | 2.66836 | 1137 ft | 99 kts | 234° |
| 2026-05-05 06:46 | 39.57349 | 2.66023 | 1353 ft | 102 kts | 255° |
| 2026-05-05 06:47 | 39.57589 | 2.65163 | 1568 ft | 108 kts | 303° |
| 2026-05-05 06:47 | 39.58037 | 2.64381 | 1777 ft | 109 kts | 301° |
| 2026-05-05 06:47 | 39.58484 | 2.63591 | 1979 ft | 108 kts | 303° |
| 2026-05-05 06:47 | 39.59153 | 2.63159 | 2182 ft | 111 kts | 343° |
| 2026-05-05 06:48 | 39.59894 | 2.62903 | 2382 ft | 109 kts | 341° |
| 2026-05-05 06:48 | 39.60627 | 2.62642 | 2581 ft | 109 kts | 341° |
| 2026-05-05 06:48 | 39.61361 | 2.62385 | 2777 ft | 109 kts | 341° |
| 2026-05-05 06:48 | 39.62083 | 2.62129 | 2978 ft | 107 kts | 341° |
| 2026-05-05 06:49 | 39.62811 | 2.61880 | 3180 ft | 109 kts | 341° |
| 2026-05-05 06:49 | 39.63540 | 2.61632 | 3383 ft | 108 kts | 341° |
| 2026-05-05 06:49 | 39.64285 | 2.61388 | 3498 ft | 116 kts | 341° |
| 2026-05-05 06:49 | 39.65051 | 2.60970 | 3507 ft | 123 kts | 321° |
| 2026-05-05 06:50 | 39.65777 | 2.60323 | 3508 ft | 129 kts | 323° |
| 2026-05-05 06:50 | 39.66501 | 2.59671 | 3511 ft | 130 kts | 322° |
| 2026-05-05 06:50 | 39.67261 | 2.58990 | 3508 ft | 132 kts | 322° |
| 2026-05-05 06:50 | 39.68021 | 2.58308 | 3511 ft | 134 kts | 322° |
| 2026-05-05 06:51 | 39.68781 | 2.57623 | 3510 ft | 135 kts | 322° |
| 2026-05-05 06:51 | 39.69631 | 2.57165 | 3509 ft | 137 kts | 360° |
| 2026-05-05 06:51 | 39.70507 | 2.57653 | 3502 ft | 139 kts | 33° |
| 2026-05-05 06:51 | 39.71323 | 2.58309 | 3503 ft | 136 kts | 31° |
| 2026-05-05 06:52 | 39.72116 | 2.58954 | 3505 ft | 133 kts | 32° |
| 2026-05-05 06:52 | 39.72904 | 2.59589 | 3500 ft | 133 kts | 32° |
| 2026-05-05 06:52 | 39.73688 | 2.60223 | 3497 ft | 133 kts | 32° |
| 2026-05-05 06:52 | 39.74474 | 2.60856 | 3497 ft | 133 kts | 32° |
| 2026-05-05 06:53 | 39.75260 | 2.61489 | 3492 ft | 132 kts | 32° |
| 2026-05-05 06:53 | 39.76044 | 2.62118 | 3493 ft | 132 kts | 32° |
| 2026-05-05 06:53 | 39.76827 | 2.62748 | 3491 ft | 133 kts | 32° |
| 2026-05-05 06:53 | 39.77615 | 2.63378 | 3488 ft | 133 kts | 31° |
| 2026-05-05 06:54 | 39.78312 | 2.64144 | 3490 ft | 132 kts | 47° |
| 2026-05-05 06:54 | 39.78943 | 2.65013 | 3491 ft | 132 kts | 49° |
| 2026-05-05 06:54 | 39.79549 | 2.65889 | 3533 ft | 129 kts | 49° |
| 2026-05-05 06:54 | 39.80140 | 2.66732 | 3627 ft | 124 kts | 49° |
| 2026-05-05 06:55 | 39.80710 | 2.67553 | 3714 ft | 121 kts | 49° |
| 2026-05-05 06:55 | 39.81271 | 2.68357 | 3803 ft | 119 kts | 49° |
| 2026-05-05 06:55 | 39.81823 | 2.69149 | 3898 ft | 118 kts | 48° |
| 2026-05-05 06:55 | 39.82370 | 2.69942 | 3993 ft | 118 kts | 49° |
| 2026-05-05 06:56 | 39.82927 | 2.70743 | 4092 ft | 120 kts | 49° |
| 2026-05-05 06:56 | 39.83486 | 2.71552 | 4196 ft | 121 kts | 49° |
| 2026-05-05 06:56 | 39.84111 | 2.72274 | 4292 ft | 120 kts | 31° |
| 2026-05-05 06:56 | 39.84825 | 2.72852 | 4388 ft | 121 kts | 32° |
| 2026-05-05 06:57 | 39.85536 | 2.73431 | 4501 ft | 121 kts | 31° |
| 2026-05-05 06:57 | 39.86248 | 2.74012 | 4603 ft | 121 kts | 31° |
| 2026-05-05 06:57 | 39.86957 | 2.74593 | 4702 ft | 120 kts | 32° |
| 2026-05-05 06:57 | 39.87664 | 2.75173 | 4799 ft | 120 kts | 31° |
| 2026-05-05 06:58 | 39.88368 | 2.75756 | 4898 ft | 120 kts | 32° |
| 2026-05-05 06:58 | 39.89071 | 2.76338 | 4995 ft | 119 kts | 32° |
| 2026-05-05 06:58 | 39.89772 | 2.76920 | 5089 ft | 120 kts | 32° |
| 2026-05-05 06:58 | 39.90528 | 2.77352 | 5189 ft | 119 kts | 15° |
| 2026-05-05 06:59 | 39.91304 | 2.77691 | 5289 ft | 119 kts | 18° |
| 2026-05-05 06:59 | 39.92085 | 2.78062 | 5390 ft | 119 kts | 19° |
| 2026-05-05 06:59 | 39.92863 | 2.78442 | 5489 ft | 119 kts | 19° |
| 2026-05-05 06:59 | 39.93638 | 2.78825 | 5587 ft | 119 kts | 19° |
| 2026-05-05 07:00 | 39.94418 | 2.79212 | 5687 ft | 119 kts | 19° |
| 2026-05-05 07:00 | 39.95195 | 2.79599 | 5788 ft | 119 kts | 19° |
| 2026-05-05 07:00 | 39.95969 | 2.79985 | 5891 ft | 119 kts | 19° |
| 2026-05-05 07:00 | 39.96744 | 2.80371 | 5989 ft | 119 kts | 19° |
| 2026-05-05 07:01 | 39.97520 | 2.80757 | 6087 ft | 119 kts | 19° |
| 2026-05-05 07:01 | 39.98295 | 2.81144 | 6188 ft | 119 kts | 19° |
| 2026-05-05 07:01 | 39.99072 | 2.81532 | 6288 ft | 120 kts | 19° |
| 2026-05-05 07:01 | 39.99849 | 2.81920 | 6387 ft | 119 kts | 19° |
| 2026-05-05 07:02 | 40.00624 | 2.82306 | 6482 ft | 120 kts | 19° |
| 2026-05-05 07:02 | 40.01392 | 2.82690 | 6578 ft | 120 kts | 18° |
| 2026-05-05 07:02 | 40.02168 | 2.83077 | 6677 ft | 120 kts | 19° |
| 2026-05-05 07:02 | 40.02945 | 2.83466 | 6772 ft | 120 kts | 19° |
| 2026-05-05 07:03 | 40.03724 | 2.83855 | 6869 ft | 119 kts | 18° |
| 2026-05-05 07:03 | 40.04501 | 2.84243 | 6964 ft | 120 kts | 18° |
| 2026-05-05 07:03 | 40.05279 | 2.84632 | 7060 ft | 120 kts | 18° |
| 2026-05-05 07:03 | 40.06057 | 2.85021 | 7150 ft | 120 kts | 18° |
| 2026-05-05 07:04 | 40.06835 | 2.85410 | 7246 ft | 120 kts | 18° |
| 2026-05-05 07:04 | 40.07612 | 2.85798 | 7343 ft | 120 kts | 18° |
| 2026-05-05 07:04 | 40.08320 | 2.86153 | 7434 ft | 120 kts | 18° |
| 2026-05-05 07:04 | 40.09121 | 2.86555 | 7459 ft | 127 kts | 18° |
| 2026-05-05 07:05 | 40.09963 | 2.86978 | 7464 ft | 132 kts | 18° |
| 2026-05-05 07:05 | 40.10833 | 2.87417 | 7462 ft | 136 kts | 18° |
| 2026-05-05 07:05 | 40.11721 | 2.87863 | 7462 ft | 138 kts | 18° |
| 2026-05-05 07:05 | 40.12616 | 2.88312 | 7466 ft | 138 kts | 18° |
| 2026-05-05 07:06 | 40.13519 | 2.88766 | 7462 ft | 139 kts | 18° |
| 2026-05-05 07:06 | 40.14425 | 2.89220 | 7462 ft | 140 kts | 18° |
| 2026-05-05 07:06 | 40.15331 | 2.89675 | 7460 ft | 140 kts | 18° |
| 2026-05-05 07:06 | 40.16240 | 2.90131 | 7464 ft | 140 kts | 19° |
| 2026-05-05 07:07 | 40.17150 | 2.90588 | 7462 ft | 140 kts | 19° |
| 2026-05-05 07:07 | 40.18047 | 2.91038 | 7462 ft | 140 kts | 19° |
| 2026-05-05 07:07 | 40.18956 | 2.91495 | 7462 ft | 140 kts | 19° |
| 2026-05-05 07:07 | 40.19867 | 2.91952 | 7462 ft | 140 kts | 19° |
| 2026-05-05 07:08 | 40.20775 | 2.92409 | 7465 ft | 140 kts | 19° |
| 2026-05-05 07:08 | 40.21683 | 2.92866 | 7460 ft | 139 kts | 19° |
| 2026-05-05 07:08 | 40.22575 | 2.93315 | 7457 ft | 136 kts | 18° |
| 2026-05-05 07:08 | 40.23454 | 2.93757 | 7456 ft | 135 kts | 18° |
| 2026-05-05 07:09 | 40.24324 | 2.94194 | 7452 ft | 134 kts | 18° |
| 2026-05-05 07:09 | 40.25192 | 2.94631 | 7451 ft | 133 kts | 18° |
| 2026-05-05 07:09 | 40.26056 | 2.95065 | 7448 ft | 133 kts | 18° |
| 2026-05-05 07:09 | 40.26914 | 2.95497 | 7446 ft | 132 kts | 18° |
| 2026-05-05 07:10 | 40.27774 | 2.95930 | 7447 ft | 132 kts | 18° |
| 2026-05-05 07:10 | 40.28635 | 2.96363 | 7445 ft | 132 kts | 18° |
| 2026-05-05 07:10 | 40.29493 | 2.96795 | 7442 ft | 132 kts | 18° |
| 2026-05-05 07:10 | 40.30351 | 2.97227 | 7448 ft | 132 kts | 18° |
| 2026-05-05 07:11 | 40.31210 | 2.97661 | 7449 ft | 132 kts | 18° |
| 2026-05-05 07:11 | 40.32057 | 2.98088 | 7452 ft | 132 kts | 18° |
| 2026-05-05 07:11 | 40.32917 | 2.98522 | 7452 ft | 132 kts | 18° |
| 2026-05-05 07:11 | 40.33779 | 2.98957 | 7452 ft | 133 kts | 18° |
| 2026-05-05 07:12 | 40.34639 | 2.99391 | 7452 ft | 132 kts | 18° |
| 2026-05-05 07:12 | 40.35498 | 2.99824 | 7453 ft | 132 kts | 18° |
| 2026-05-05 07:12 | 40.36356 | 3.00257 | 7451 ft | 132 kts | 18° |
| 2026-05-05 07:12 | 40.37208 | 3.00688 | 7453 ft | 132 kts | 18° |
| 2026-05-05 07:13 | 40.38068 | 3.01123 | 7452 ft | 132 kts | 18° |
| 2026-05-05 07:13 | 40.38928 | 3.01557 | 7453 ft | 132 kts | 18° |
| 2026-05-05 07:13 | 40.39785 | 3.01991 | 7455 ft | 132 kts | 18° |
| 2026-05-05 07:13 | 40.40647 | 3.02426 | 7457 ft | 132 kts | 18° |
| 2026-05-05 07:14 | 40.41506 | 3.02861 | 7455 ft | 132 kts | 18° |
| 2026-05-05 07:14 | 40.42354 | 3.03290 | 7453 ft | 132 kts | 18° |
| 2026-05-05 07:14 | 40.43211 | 3.03723 | 7454 ft | 132 kts | 18° |
| 2026-05-05 07:14 | 40.44069 | 3.04158 | 7455 ft | 132 kts | 18° |
| 2026-05-05 07:15 | 40.44930 | 3.04594 | 7454 ft | 132 kts | 18° |
| 2026-05-05 07:15 | 40.45793 | 3.05031 | 7453 ft | 132 kts | 18° |
| 2026-05-05 07:15 | 40.46652 | 3.05466 | 7456 ft | 132 kts | 18° |
| 2026-05-05 07:15 | 40.47512 | 3.05901 | 7454 ft | 132 kts | 18° |
| 2026-05-05 07:16 | 40.48369 | 3.06336 | 7454 ft | 132 kts | 18° |
| 2026-05-05 07:16 | 40.49227 | 3.06771 | 7455 ft | 132 kts | 18° |
| 2026-05-05 07:16 | 40.50085 | 3.07206 | 7454 ft | 132 kts | 18° |
| 2026-05-05 07:16 | 40.50943 | 3.07642 | 7452 ft | 132 kts | 18° |
| 2026-05-05 07:17 | 40.51801 | 3.08076 | 7450 ft | 132 kts | 18° |
| 2026-05-05 07:17 | 40.52645 | 3.08505 | 7452 ft | 132 kts | 18° |
| 2026-05-05 07:17 | 40.53501 | 3.08940 | 7449 ft | 132 kts | 18° |
| 2026-05-05 07:17 | 40.54359 | 3.09375 | 7455 ft | 132 kts | 18° |
| 2026-05-05 07:18 | 40.55211 | 3.09808 | 7464 ft | 131 kts | 18° |
| 2026-05-05 07:18 | 40.56062 | 3.10240 | 7463 ft | 131 kts | 18° |
| 2026-05-05 07:18 | 40.56913 | 3.10672 | 7462 ft | 131 kts | 18° |
| 2026-05-05 07:18 | 40.57767 | 3.11102 | 7463 ft | 131 kts | 18° |
| 2026-05-05 07:19 | 40.58620 | 3.11537 | 7465 ft | 131 kts | 18° |